Time;durP1;ratioP1;P1;durP2;ratioP2;P2;SDS_P1;SDS_P2;PMS_P1;PMS_P2;Temp;Humidity;BMP_temperature;BMP_pressure;BME280_temperature;BME280_humidity;BME280_pressure;Samples;Min_cycle;Max_cycle;Signal;HPM_P1;HPM_P2
2024/01/15 00:01:07;;;;;;;15.87;10.40;;;;;;;;;;5035640;28;20194;-86
2024/01/15 00:03:40;;;;;;;17.73;8.37;;;;;;;;;;5035072;28;20585;-85
2024/01/15 00:06:10;;;;;;;34.47;13.23;;;;;;;;;;5033764;28;20226;-85
2024/01/15 00:08:42;;;;;;;25.93;11.20;;;;;;;;;;5050539;28;20282;-86
2024/01/15 00:11:15;;;;;;;15.57;7.43;;;;;;;;;;5074855;28;20293;-85
2024/01/15 00:13:45;;;;;;;14.10;6.93;;;;;;;;;;5075322;28;20222;-87
2024/01/15 00:16:12;;;;;;;13.80;7.43;;;;;;;;;;5076071;28;20245;-86
2024/01/15 00:18:40;;;;;;;16.53;8.13;;;;;;;;;;5078288;28;20230;-86
2024/01/15 00:21:11;;;;;;;23.73;9.73;;;;;;;;;;5082522;28;20190;-86
2024/01/15 00:23:44;;;;;;;39.63;9.27;;;;;;;;;;5080718;28;20203;-86
2024/01/15 00:26:13;;;;;;;25.27;10.07;;;;;;;;;;5075913;28;20477;-86
2024/01/15 00:28:43;;;;;;;22.37;8.80;;;;;;;;;;5075012;28;20203;-85
2024/01/15 00:31:12;;;;;;;17.30;7.73;;;;;;;;;;5083135;28;20201;-86
2024/01/15 00:33:43;;;;;;;22.40;7.77;;;;;;;;;;5089347;28;20238;-86
2024/01/15 00:36:11;;;;;;;9.83;5.93;;;;;;;;;;5094962;28;20292;-86
2024/01/15 00:38:40;;;;;;;11.67;7.60;;;;;;;;;;5081831;28;20554;-85
2024/01/15 00:41:07;;;;;;;13.93;7.70;;;;;;;;;;5074194;28;20199;-85
2024/01/15 00:43:37;;;;;;;24.13;8.23;;;;;;;;;;5057129;28;20576;-86
2024/01/15 00:46:06;;;;;;;11.67;5.77;;;;;;;;;;5075267;28;20211;-84
2024/01/15 00:48:34;;;;;;;23.17;7.87;;;;;;;;;;5075909;28;20336;-85
2024/01/15 00:51:02;;;;;;;14.43;6.93;;;;;;;;;;5076626;28;20222;-86
2024/01/15 00:53:32;;;;;;;8.07;7.30;;;;;;;;;;5076106;28;20211;-85
2024/01/15 00:56:00;;;;;;;16.30;8.80;;;;;;;;;;5076349;28;20284;-84
2024/01/15 00:58:30;;;;;;;12.37;7.13;;;;;;;;;;5080970;28;20234;-86
2024/01/15 01:00:59;;;;;;;22.57;6.47;;;;;;;;;;5078385;28;20285;-85
2024/01/15 01:03:27;;;;;;;15.33;7.50;;;;;;;;;;5075690;28;20194;-86
2024/01/15 01:05:56;;;;;;;11.73;7.70;;;;;;;;;;5076267;28;20221;-87
2024/01/15 01:08:24;;;;;;;9.10;8.10;;;;;;;;;;5076234;28;20234;-86
2024/01/15 01:10:53;;;;;;;20.93;8.10;;;;;;;;;;5077701;28;20199;-85
2024/01/15 01:13:24;;;;;;;15.73;7.57;;;;;;;;;;5076689;28;20232;-85
2024/01/15 01:15:52;;;;;;;20.70;7.50;;;;;;;;;;5077953;28;20229;-86
2024/01/15 01:18:22;;;;;;;15.47;7.43;;;;;;;;;;5076165;28;20222;-85
2024/01/15 01:20:53;;;;;;;16.37;7.57;;;;;;;;;;5077070;28;20561;-84
2024/01/15 01:23:23;;;;;;;10.17;5.70;;;;;;;;;;5076562;28;20279;-86
2024/01/15 01:25:51;;;;;;;11.17;6.50;;;;;;;;;;5075878;28;20199;-85
2024/01/15 01:28:19;;;;;;;8.87;5.10;;;;;;;;;;5074600;28;20198;-85
2024/01/15 01:30:46;;;;;;;5.87;4.57;;;;;;;;;;5076037;28;20271;-85
2024/01/15 01:33:13;;;;;;;8.50;5.57;;;;;;;;;;5074081;28;20194;-85
2024/01/15 01:35:46;;;;;;;17.30;5.60;;;;;;;;;;5074081;28;20238;-86
2024/01/15 01:38:13;;;;;;;11.00;6.13;;;;;;;;;;5074684;28;20233;-86
2024/01/15 01:40:43;;;;;;;12.60;6.37;;;;;;;;;;5073720;28;20446;-86
2024/01/15 01:43:11;;;;;;;11.70;4.67;;;;;;;;;;5074267;28;20203;-86
2024/01/15 01:45:42;;;;;;;11.00;7.27;;;;;;;;;;5074254;28;20290;-86
2024/01/15 01:48:10;;;;;;;10.00;6.07;;;;;;;;;;5073909;28;20285;-86
2024/01/15 01:50:39;;;;;;;9.50;5.27;;;;;;;;;;5073380;28;20621;-86
2024/01/15 01:53:09;;;;;;;9.37;4.77;;;;;;;;;;5077730;28;20235;-86
2024/01/15 01:55:37;;;;;;;11.13;4.83;;;;;;;;;;5078860;28;20228;-86
2024/01/15 01:58:06;;;;;;;13.37;5.70;;;;;;;;;;5078300;28;20254;-86
2024/01/15 02:00:34;;;;;;;13.50;6.20;;;;;;;;;;5077988;28;20190;-87
2024/01/15 02:03:04;;;;;;;12.83;6.10;;;;;;;;;;5077737;28;20198;-87
2024/01/15 02:05:32;;;;;;;7.87;6.13;;;;;;;;;;5077443;28;20254;-85
2024/01/15 02:08:00;;;;;;;10.93;4.83;;;;;;;;;;5076971;28;20225;-86
2024/01/15 02:10:31;;;;;;;10.30;5.67;;;;;;;;;;5077498;28;20209;-86
2024/01/15 02:13:01;;;;;;;12.63;6.30;;;;;;;;;;5079059;28;20278;-84
2024/01/15 02:15:30;;;;;;;5.57;4.83;;;;;;;;;;5078621;28;20230;-85
2024/01/15 02:17:58;;;;;;;14.67;5.83;;;;;;;;;;5077653;28;20624;-86
2024/01/15 02:20:29;;;;;;;16.43;6.57;;;;;;;;;;5077699;28;20203;-86
2024/01/15 02:23:09;;;;;;;9.67;4.07;;;;;;;;;;5077809;28;20199;-85
2024/01/15 02:25:37;;;;;;;12.47;5.57;;;;;;;;;;5079040;28;20213;-85
2024/01/15 02:28:05;;;;;;;7.70;6.90;;;;;;;;;;5080262;28;20254;-85
2024/01/15 02:30:32;;;;;;;9.73;5.37;;;;;;;;;;5080263;28;20207;-84
2024/01/15 02:33:00;;;;;;;5.97;5.10;;;;;;;;;;5082166;28;20202;-85
2024/01/15 02:35:28;;;;;;;11.17;7.07;;;;;;;;;;5083359;28;20281;-84
2024/01/15 02:37:57;;;;;;;9.97;5.43;;;;;;;;;;5082450;28;20191;-84
2024/01/15 02:40:26;;;;;;;15.33;5.83;;;;;;;;;;5085130;28;20202;-86
2024/01/15 02:42:53;;;;;;;7.00;5.37;;;;;;;;;;5086831;28;20191;-85
2024/01/15 02:45:23;;;;;;;8.87;6.10;;;;;;;;;;5087302;28;20202;-85
2024/01/15 02:47:51;;;;;;;9.73;5.23;;;;;;;;;;5085562;28;20216;-86
2024/01/15 02:50:18;;;;;;;10.30;6.63;;;;;;;;;;5084326;28;20289;-85
2024/01/15 02:52:46;;;;;;;11.53;6.17;;;;;;;;;;5084270;28;20206;-85
2024/01/15 02:55:13;;;;;;;13.97;5.27;;;;;;;;;;5082743;28;20226;-86
2024/01/15 02:57:42;;;;;;;10.63;4.47;;;;;;;;;;5080791;28;20187;-86
2024/01/15 03:00:11;;;;;;;9.03;6.90;;;;;;;;;;5082003;28;20230;-85
2024/01/15 03:02:44;;;;;;;7.87;5.27;;;;;;;;;;5082774;28;20270;-85
2024/01/15 03:05:12;;;;;;;13.20;5.13;;;;;;;;;;5082590;28;20202;-86
2024/01/15 03:07:51;;;;;;;10.93;4.73;;;;;;;;;;5082668;28;20221;-85
2024/01/15 03:10:24;;;;;;;11.70;6.43;;;;;;;;;;5085554;28;20217;-85
2024/01/15 03:12:58;;;;;;;6.33;4.60;;;;;;;;;;5086338;28;20270;-83
2024/01/15 03:15:28;;;;;;;11.00;4.67;;;;;;;;;;5079902;28;20577;-85
2024/01/15 03:17:55;;;;;;;13.30;6.40;;;;;;;;;;5080953;28;20210;-85
2024/01/15 03:20:22;;;;;;;8.23;4.57;;;;;;;;;;5084565;28;20214;-84
2024/01/15 03:22:50;;;;;;;6.50;5.60;;;;;;;;;;5067036;28;20205;-83
2024/01/15 03:25:17;;;;;;;8.03;5.03;;;;;;;;;;5068028;28;20290;-83
2024/01/15 03:27:44;;;;;;;11.10;5.47;;;;;;;;;;5066271;28;20195;-84
2024/01/15 03:30:19;;;;;;;13.17;6.80;;;;;;;;;;5062814;28;20203;-83
2024/01/15 03:32:47;;;;;;;11.60;6.87;;;;;;;;;;5071623;28;20240;-85
2024/01/15 03:35:14;;;;;;;12.13;6.57;;;;;;;;;;5071787;28;20180;-84
2024/01/15 03:37:42;;;;;;;11.53;6.00;;;;;;;;;;5070843;28;20214;-84
2024/01/15 03:40:13;;;;;;;9.27;7.33;;;;;;;;;;5065891;28;20231;-85
2024/01/15 03:42:40;;;;;;;11.77;6.57;;;;;;;;;;5070155;28;20210;-85
2024/01/15 03:45:08;;;;;;;16.53;6.10;;;;;;;;;;5070665;28;20203;-85
2024/01/15 03:47:55;;;;;;;15.10;7.03;;;;;;;;;;5073506;28;20180;-84
2024/01/15 03:50:25;;;;;;;19.80;8.23;;;;;;;;;;5067016;28;20213;-83
2024/01/15 03:52:53;;;;;;;33.23;18.20;;;;;;;;;;5056802;28;20207;-85
2024/01/15 03:55:20;;;;;;;17.20;8.50;;;;;;;;;;5057221;28;20333;-85
2024/01/15 03:57:48;;;;;;;12.00;7.57;;;;;;;;;;5056864;28;20686;-86
2024/01/15 04:00:21;;;;;;;18.63;8.17;;;;;;;;;;5056104;28;20227;-87
2024/01/15 04:02:50;;;;;;;19.60;8.00;;;;;;;;;;5055531;28;20187;-85
2024/01/15 04:05:18;;;;;;;25.20;10.13;;;;;;;;;;5055009;28;20188;-85
2024/01/15 04:07:46;;;;;;;13.53;7.23;;;;;;;;;;5061104;28;20207;-86
2024/01/15 04:10:16;;;;;;;7.77;6.17;;;;;;;;;;5056067;28;20226;-86
2024/01/15 04:12:43;;;;;;;23.27;10.53;;;;;;;;;;5055436;28;20229;-85
2024/01/15 04:15:11;;;;;;;30.97;11.67;;;;;;;;;;5054915;28;20207;-86
2024/01/15 04:17:39;;;;;;;17.23;7.67;;;;;;;;;;5055615;28;20211;-86
2024/01/15 04:20:06;;;;;;;15.30;8.93;;;;;;;;;;5063797;28;20310;-85
2024/01/15 04:22:35;;;;;;;10.70;6.70;;;;;;;;;;5084399;28;20578;-86
2024/01/15 04:25:06;;;;;;;15.83;8.43;;;;;;;;;;5088693;28;20217;-87
2024/01/15 04:27:45;;;;;;;13.10;7.70;;;;;;;;;;5090541;28;20205;-85
2024/01/15 04:30:32;;;;;;;21.50;9.67;;;;;;;;;;5095061;28;20206;-85
2024/01/15 04:33:05;;;;;;;19.37;8.43;;;;;;;;;;5078433;28;20195;-85
2024/01/15 04:35:38;;;;;;;18.70;7.27;;;;;;;;;;5075816;28;20198;-86
2024/01/15 04:38:14;;;;;;;20.37;9.33;;;;;;;;;;5075026;28;20244;-86
2024/01/15 04:40:44;;;;;;;15.97;9.47;;;;;;;;;;5075209;28;20260;-86
2024/01/15 04:43:18;;;;;;;27.70;9.23;;;;;;;;;;5074964;28;20268;-87
2024/01/15 04:45:50;;;;;;;16.90;9.20;;;;;;;;;;5076981;28;20278;-85
2024/01/15 04:48:19;;;;;;;13.50;6.73;;;;;;;;;;5083562;28;20203;-85
2024/01/15 04:51:03;;;;;;;17.80;8.43;;;;;;;;;;5078445;28;20209;-86
2024/01/15 04:53:34;;;;;;;22.53;8.47;;;;;;;;;;5074273;28;20241;-86
2024/01/15 04:56:03;;;;;;;16.80;7.80;;;;;;;;;;5074739;28;20210;-87
2024/01/15 04:58:32;;;;;;;19.83;8.60;;;;;;;;;;5075003;28;20262;-85
2024/01/15 05:01:05;;;;;;;25.87;13.27;;;;;;;;;;5073210;28;20241;-87
2024/01/15 05:03:36;;;;;;;21.73;10.63;;;;;;;;;;5074499;28;20225;-84
2024/01/15 05:06:19;;;;;;;22.43;9.43;;;;;;;;;;5073446;28;20205;-84
2024/01/15 05:08:50;;;;;;;23.17;8.80;;;;;;;;;;5073271;28;20244;-86
2024/01/15 05:11:21;;;;;;;17.67;8.93;;;;;;;;;;5074341;28;20671;-86
2024/01/15 05:13:51;;;;;;;14.27;6.90;;;;;;;;;;5074505;28;20199;-85
2024/01/15 05:16:28;;;;;;;27.90;8.73;;;;;;;;;;5073376;28;20675;-86
2024/01/15 05:18:55;;;;;;;29.23;9.17;;;;;;;;;;5074572;28;20202;-85
2024/01/15 05:21:27;;;;;;;18.27;7.90;;;;;;;;;;5073441;28;20244;-87
2024/01/15 05:23:55;;;;;;;18.43;9.13;;;;;;;;;;5073502;28;20195;-86
2024/01/15 05:26:24;;;;;;;27.53;12.07;;;;;;;;;;5081046;28;20270;-87
2024/01/15 05:28:53;;;;;;;25.23;11.27;;;;;;;;;;5088711;28;20199;-86
2024/01/15 05:31:25;;;;;;;24.20;13.03;;;;;;;;;;5090507;28;20265;-85
2024/01/15 05:33:53;;;;;;;23.10;11.43;;;;;;;;;;5093475;28;20225;-84
2024/01/15 05:36:21;;;;;;;25.50;12.17;;;;;;;;;;5076961;28;20210;-86
2024/01/15 05:38:50;;;;;;;30.17;11.30;;;;;;;;;;5074023;28;20202;-85
2024/01/15 05:41:18;;;;;;;19.13;9.60;;;;;;;;;;5074814;28;20202;-87
2024/01/15 05:43:50;;;;;;;22.13;10.53;;;;;;;;;;5075977;28;20226;-86
2024/01/15 05:46:17;;;;;;;34.80;11.40;;;;;;;;;;5075219;28;20191;-85
2024/01/15 05:48:49;;;;;;;24.37;10.87;;;;;;;;;;5073442;28;20203;-86
2024/01/15 05:51:15;;;;;;;30.53;11.67;;;;;;;;;;5076585;28;20263;-86
2024/01/15 05:53:44;;;;;;;22.43;12.53;;;;;;;;;;5073402;28;20455;-86
2024/01/15 05:56:12;;;;;;;17.93;10.73;;;;;;;;;;5073604;28;20201;-87
2024/01/15 05:58:39;;;;;;;25.60;11.60;;;;;;;;;;5083907;28;20217;-85
2024/01/15 06:01:09;;;;;;;32.10;13.60;;;;;;;;;;5082651;28;20313;-84
2024/01/15 06:03:37;;;;;;;37.73;13.90;;;;;;;;;;5078822;28;20252;-85
2024/01/15 06:06:09;;;;;;;45.07;16.37;;;;;;;;;;5076366;28;20273;-85
2024/01/15 06:08:38;;;;;;;40.83;17.47;;;;;;;;;;5074715;28;20234;-86
2024/01/15 06:11:06;;;;;;;36.33;19.33;;;;;;;;;;5075037;28;20203;-86
2024/01/15 06:13:34;;;;;;;46.63;19.43;;;;;;;;;;5074800;28;20230;-85
2024/01/15 06:16:03;;;;;;;36.13;18.03;;;;;;;;;;5073693;28;20191;-85
2024/01/15 06:18:35;;;;;;;45.23;19.73;;;;;;;;;;5074002;28;20241;-85
2024/01/15 06:21:04;;;;;;;58.23;19.77;;;;;;;;;;5074531;28;20258;-86
2024/01/15 06:23:33;;;;;;;57.80;22.50;;;;;;;;;;5073159;28;20625;-85
2024/01/15 06:26:08;;;;;;;53.40;21.00;;;;;;;;;;5074021;28;20588;-87
2024/01/15 06:28:38;;;;;;;36.73;18.87;;;;;;;;;;5073449;28;20202;-86
2024/01/15 06:31:07;;;;;;;40.53;19.37;;;;;;;;;;5075444;28;20248;-84
2024/01/15 06:33:58;;;;;;;46.00;19.17;;;;;;;;;;5078998;28;20214;-85
2024/01/15 06:36:26;;;;;;;42.03;17.30;;;;;;;;;;5078766;28;20519;-85
2024/01/15 06:39:03;;;;;;;45.20;19.13;;;;;;;;;;5084175;28;20224;-84
2024/01/15 06:41:31;;;;;;;42.43;18.00;;;;;;;;;;5088831;28;20299;-85
2024/01/15 06:44:00;;;;;;;50.23;19.33;;;;;;;;;;5089537;28;20186;-85
2024/01/15 06:46:31;;;;;;;39.97;18.67;;;;;;;;;;5091400;28;20203;-85
2024/01/15 06:49:03;;;;;;;45.03;20.90;;;;;;;;;;5087342;28;20194;-85
2024/01/15 06:51:32;;;;;;;60.03;21.80;;;;;;;;;;5081378;28;20277;-86
2024/01/15 06:54:05;;;;;;;44.80;18.77;;;;;;;;;;5081051;28;20198;-85
2024/01/15 06:56:35;;;;;;;43.07;18.20;;;;;;;;;;5084187;28;20709;-86
2024/01/15 06:59:03;;;;;;;46.83;16.80;;;;;;;;;;5087376;28;20205;-84
2024/01/15 07:01:48;;;;;;;39.90;18.03;;;;;;;;;;5085789;28;20230;-84
2024/01/15 07:04:30;;;;;;;36.93;16.43;;;;;;;;;;5083196;28;20198;-86
2024/01/15 07:06:57;;;;;;;34.73;17.43;;;;;;;;;;5083307;28;20233;-85
2024/01/15 07:09:25;;;;;;;48.57;22.00;;;;;;;;;;5084465;28;20230;-85
2024/01/15 07:11:59;;;;;;;57.37;25.70;;;;;;;;;;5089866;28;20595;-85
2024/01/15 07:14:52;;;;;;;57.13;23.40;;;;;;;;;;5090247;28;20197;-85
2024/01/15 07:17:20;;;;;;;48.67;22.40;;;;;;;;;;5088734;28;20213;-86
2024/01/15 07:19:59;;;;;;;41.17;18.80;;;;;;;;;;5074126;28;20223;-86
2024/01/15 07:22:26;;;;;;;45.67;16.53;;;;;;;;;;5095797;28;20279;-86
2024/01/15 07:24:56;;;;;;;31.60;17.40;;;;;;;;;;5094829;28;20241;-86
2024/01/15 07:27:24;;;;;;;42.20;17.80;;;;;;;;;;5083236;28;20236;-86
2024/01/15 07:29:58;;;;;;;36.97;16.30;;;;;;;;;;5089098;28;20325;-86
2024/01/15 07:32:29;;;;;;;37.47;16.77;;;;;;;;;;5097303;28;20739;-86
2024/01/15 07:34:59;;;;;;;45.03;17.33;;;;;;;;;;5092585;28;20245;-86
2024/01/15 07:37:26;;;;;;;32.97;15.37;;;;;;;;;;5107509;28;20213;-86
2024/01/15 07:39:53;;;;;;;44.63;17.43;;;;;;;;;;5095593;28;20234;-85
2024/01/15 07:42:23;;;;;;;51.80;21.63;;;;;;;;;;5080882;28;20281;-85
2024/01/15 07:44:51;;;;;;;30.07;16.80;;;;;;;;;;5078890;28;20222;-86
2024/01/15 07:47:18;;;;;;;42.50;15.83;;;;;;;;;;5089569;28;20215;-86
2024/01/15 07:49:46;;;;;;;39.33;18.50;;;;;;;;;;5093635;28;20221;-84
2024/01/15 07:52:15;;;;;;;35.57;16.40;;;;;;;;;;5090520;28;20227;-86
2024/01/15 07:54:43;;;;;;;35.13;16.63;;;;;;;;;;5091717;28;21106;-85
2024/01/15 07:57:10;;;;;;;43.37;17.53;;;;;;;;;;5102501;28;20233;-87
2024/01/15 07:59:38;;;;;;;37.27;17.53;;;;;;;;;;5107405;28;20248;-85
2024/01/15 08:02:05;;;;;;;56.27;25.83;;;;;;;;;;5106954;28;20256;-85
2024/01/15 08:04:38;;;;;;;38.83;16.60;;;;;;;;;;5106595;28;20222;-86
2024/01/15 08:07:06;;;;;;;38.90;17.47;;;;;;;;;;5098866;28;20241;-87
2024/01/15 08:09:35;;;;;;;37.83;16.87;;;;;;;;;;5101673;28;20246;-86
2024/01/15 08:12:05;;;;;;;33.63;13.83;;;;;;;;;;5103501;28;20467;-84
2024/01/15 08:14:32;;;;;;;40.63;13.00;;;;;;;;;;5093834;28;20294;-86
2024/01/15 08:17:01;;;;;;;31.27;11.97;;;;;;;;;;5081037;28;20229;-85
2024/01/15 08:19:28;;;;;;;31.30;12.60;;;;;;;;;;5080234;28;20206;-86
2024/01/15 08:21:57;;;;;;;33.37;14.23;;;;;;;;;;5081001;28;20683;-86
2024/01/15 08:24:23;;;;;;;35.30;13.70;;;;;;;;;;5084201;28;20222;-86
2024/01/15 08:26:52;;;;;;;38.07;14.43;;;;;;;;;;5083476;28;20222;-85
2024/01/15 08:29:20;;;;;;;35.97;15.67;;;;;;;;;;5083365;28;20337;-84
2024/01/15 08:31:55;;;;;;;27.43;13.53;;;;;;;;;;5086000;28;20294;-86
2024/01/15 08:34:52;;;;;;;30.53;15.37;;;;;;;;;;5083239;28;20252;-85
2024/01/15 08:37:21;;;;;;;36.43;14.80;;;;;;;;;;5079809;28;20694;-86
2024/01/15 08:39:51;;;;;;;33.97;14.47;;;;;;;;;;5076949;28;20690;-85
2024/01/15 08:42:25;;;;;;;34.30;16.37;;;;;;;;;;5072215;28;20236;-86
2024/01/15 08:44:56;;;;;;;42.47;17.17;;;;;;;;;;5065211;28;20241;-85
2024/01/15 08:47:35;;;;;;;47.93;17.47;;;;;;;;;;5072344;28;20244;-87
2024/01/15 08:50:03;;;;;;;42.13;19.67;;;;;;;;;;5074327;28;20731;-85
2024/01/15 08:52:37;;;;;;;32.40;13.97;;;;;;;;;;5076944;28;20245;-85
2024/01/15 08:55:08;;;;;;;38.27;16.60;;;;;;;;;;5085564;28;20221;-86
2024/01/15 08:57:46;;;;;;;30.43;13.10;;;;;;;;;;5075446;28;20261;-87
2024/01/15 09:00:17;;;;;;;44.17;15.70;;;;;;;;;;5074313;28;20638;-86
2024/01/15 09:02:53;;;;;;;33.90;16.77;;;;;;;;;;5086448;28;20365;-86
2024/01/15 09:05:23;;;;;;;34.17;15.00;;;;;;;;;;5087493;28;20218;-86
2024/01/15 09:08:01;;;;;;;26.30;13.73;;;;;;;;;;5080749;28;20224;-85
2024/01/15 09:10:37;;;;;;;53.30;19.23;;;;;;;;;;5090074;28;20303;-86
2024/01/15 09:13:25;;;;;;;28.33;15.53;;;;;;;;;;5091085;28;20229;-87
2024/01/15 09:15:52;;;;;;;39.23;14.23;;;;;;;;;;5075148;28;20325;-86
2024/01/15 09:18:23;;;;;;;32.93;15.03;;;;;;;;;;5072057;28;20238;-87
2024/01/15 09:20:51;;;;;;;32.93;14.27;;;;;;;;;;5073572;28;20315;-87
2024/01/15 09:23:23;;;;;;;39.33;17.63;;;;;;;;;;5073463;28;20238;-87
2024/01/15 09:25:59;;;;;;;34.73;15.33;;;;;;;;;;5072226;28;20714;-86
2024/01/15 09:28:44;;;;;;;26.63;13.93;;;;;;;;;;5076352;28;20257;-87
2024/01/15 09:31:21;;;;;;;31.63;14.17;;;;;;;;;;5075001;28;20294;-87
2024/01/15 09:33:51;;;;;;;25.00;14.50;;;;;;;;;;5076791;28;20622;-86
2024/01/15 09:39:27;;;;;;;27.80;14.20;;;;;;;;;;5070358;28;20237;-85
2024/01/15 09:42:17;;;;;;;35.67;14.03;;;;;;;;;;5073641;28;20230;-87
2024/01/15 09:45:04;;;;;;;28.43;13.63;;;;;;;;;;5067241;28;20234;-86
2024/01/15 09:47:37;;;;;;;29.90;14.03;;;;;;;;;;5067965;28;20227;-85
2024/01/15 09:50:20;;;;;;;31.97;13.97;;;;;;;;;;5074233;28;20218;-86
2024/01/15 09:52:48;;;;;;;27.43;15.30;;;;;;;;;;5056585;28;20226;-87
2024/01/15 09:55:24;;;;;;;48.87;16.73;;;;;;;;;;5057917;28;20229;-86
2024/01/15 09:57:57;;;;;;;26.27;13.23;;;;;;;;;;5060983;28;21535;-85
2024/01/15 10:00:28;;;;;;;27.03;11.80;;;;;;;;;;5078612;28;20252;-85
2024/01/15 10:03:16;;;;;;;43.00;14.63;;;;;;;;;;5097406;28;20232;-86
2024/01/15 10:06:08;;;;;;;25.33;13.87;;;;;;;;;;5085905;28;20259;-85
2024/01/15 10:09:00;;;;;;;15.00;10.13;;;;;;;;;;5091578;28;20314;-87
2024/01/15 10:11:33;;;;;;;32.63;11.83;;;;;;;;;;5074949;28;20311;-85
2024/01/15 10:14:15;;;;;;;29.40;13.83;;;;;;;;;;5087458;28;20226;-84
2024/01/15 10:17:01;;;;;;;;;;;;;;;;;;;;;
2024/01/15 10:19:36;;;;;;;17.33;10.57;;;;;;;;;;5074899;28;20230;-85
2024/01/15 10:22:15;;;;;;;22.80;9.67;;;;;;;;;;5075837;28;20301;-85
2024/01/15 10:25:21;;;;;;;;;;;;;;;;;;;;;
2024/01/15 10:30:57;;;;;;;51.17;16.27;;;;;;;;;;5075063;28;20226;-85
2024/01/15 10:33:32;;;;;;;38.90;16.93;;;;;;;;;;5079741;28;20230;-86
2024/01/15 10:36:16;;;;;;;41.43;15.97;;;;;;;;;;5089868;28;20233;-85
2024/01/15 10:38:49;;;;;;;44.13;20.23;;;;;;;;;;5086933;28;20222;-86
2024/01/15 10:41:17;;;;;;;44.40;21.13;;;;;;;;;;5081623;28;20294;-86
2024/01/15 10:43:45;;;;;;;46.70;23.77;;;;;;;;;;5085551;28;20230;-86
2024/01/15 10:46:16;;;;;;;39.77;19.30;;;;;;;;;;5081729;28;20229;-87
2024/01/15 10:51:28;;;;;;;39.93;21.80;;;;;;;;;;5075626;28;20237;-86
2024/01/15 10:54:02;;;;;;;48.70;22.00;;;;;;;;;;5086218;28;20230;-86
2024/01/15 10:56:34;;;;;;;45.63;21.17;;;;;;;;;;5084120;28;20225;-86
2024/01/15 10:59:05;;;;;;;49.40;22.37;;;;;;;;;;5082043;28;20314;-86
2024/01/15 11:04:16;;;;;;;49.53;21.03;;;;;;;;;;5069989;28;20716;-86
2024/01/15 11:06:44;;;;;;;39.43;21.33;;;;;;;;;;5075582;28;20231;-87
2024/01/15 11:09:20;;;;;;;42.17;17.67;;;;;;;;;;5081227;28;20292;-88
2024/01/15 11:12:03;;;;;;;28.47;14.47;;;;;;;;;;5097708;28;20256;-86
2024/01/15 11:14:36;;;;;;;27.07;13.77;;;;;;;;;;5113492;28;20213;-85
2024/01/15 11:17:05;;;;;;;26.20;13.53;;;;;;;;;;5103892;28;20253;-87
2024/01/15 11:19:40;;;;;;;29.97;14.47;;;;;;;;;;5084755;28;20230;-86
2024/01/15 11:22:38;;;;;;;29.97;14.47;;;;;;;;;;5076715;28;20234;-87
2024/01/15 11:25:17;;;;;;;29.40;14.10;;;;;;;;;;5080521;28;20443;-88
2024/01/15 11:27:51;;;;;;;35.33;15.37;;;;;;;;;;5082593;28;20230;-86
2024/01/15 11:30:19;;;;;;;34.43;15.80;;;;;;;;;;5082242;28;20223;-87
2024/01/15 11:32:49;;;;;;;25.97;14.17;;;;;;;;;;5076550;28;20368;-86
2024/01/15 11:35:19;;;;;;;28.07;13.93;;;;;;;;;;5083509;28;20238;-87
2024/01/15 11:38:03;;;;;;;28.00;14.03;;;;;;;;;;5090197;28;20214;-86
2024/01/15 11:40:47;;;;;;;33.60;14.87;;;;;;;;;;5096653;28;20252;-87
2024/01/15 11:43:20;;;;;;;25.73;15.03;;;;;;;;;;5094709;28;20226;-86
2024/01/15 11:45:53;;;;;;;27.27;13.87;;;;;;;;;;5093313;28;20225;-86
2024/01/15 11:48:23;;;;;;;29.87;13.97;;;;;;;;;;5095594;28;20707;-86
2024/01/15 11:50:55;;;;;;;25.87;13.27;;;;;;;;;;5093919;28;20278;-88
2024/01/15 11:53:33;;;;;;;26.47;14.03;;;;;;;;;;5094751;28;20254;-87
2024/01/15 11:56:18;;;;;;;23.30;12.87;;;;;;;;;;5082997;28;20218;-87
2024/01/15 11:58:51;;;;;;;30.20;12.77;;;;;;;;;;5082986;28;20225;-87
2024/01/15 12:01:23;;;;;;;29.17;14.40;;;;;;;;;;5084178;28;20780;-86
2024/01/15 12:03:51;;;;;;;24.63;13.17;;;;;;;;;;5074696;28;20226;-87
2024/01/15 12:06:23;;;;;;;28.03;13.97;;;;;;;;;;5075731;28;20225;-87
2024/01/15 12:08:51;;;;;;;27.43;11.53;;;;;;;;;;5087348;28;20273;-86
2024/01/15 12:11:22;;;;;;;21.57;11.37;;;;;;;;;;5095461;28;20229;-87
2024/01/15 12:13:52;;;;;;;22.33;11.77;;;;;;;;;;5094317;28;20214;-88
2024/01/15 12:16:20;;;;;;;27.37;12.30;;;;;;;;;;5095682;28;20225;-87
2024/01/15 12:18:55;;;;;;;38.10;14.57;;;;;;;;;;5084811;28;20294;-87
2024/01/15 12:21:28;;;;;;;27.37;12.80;;;;;;;;;;5095591;28;20314;-88
2024/01/15 12:24:03;;;;;;;32.70;15.70;;;;;;;;;;5094465;28;20221;-86
2024/01/15 12:26:37;;;;;;;38.27;17.23;;;;;;;;;;5096178;28;20260;-88
2024/01/15 12:29:10;;;;;;;40.83;17.93;;;;;;;;;;5083025;28;20313;-86
2024/01/15 12:31:41;;;;;;;33.73;16.00;;;;;;;;;;5077282;28;20297;-86
2024/01/15 12:34:16;;;;;;;42.50;18.23;;;;;;;;;;5074876;28;20218;-87
2024/01/15 12:36:55;;;;;;;28.43;15.43;;;;;;;;;;5073672;28;20273;-87
2024/01/15 12:39:32;;;;;;;34.20;17.03;;;;;;;;;;5078572;28;20625;-87
2024/01/15 12:42:15;;;;;;;44.40;17.83;;;;;;;;;;5093514;28;20324;-86
2024/01/15 12:44:59;;;;;;;29.30;17.30;;;;;;;;;;5092420;28;20328;-87
2024/01/15 12:47:42;;;;;;;36.87;18.03;;;;;;;;;;5090836;28;20609;-87
2024/01/15 12:50:22;;;;;;;37.03;16.73;;;;;;;;;;5089862;28;20226;-86
2024/01/15 12:53:00;;;;;;;34.33;17.17;;;;;;;;;;5094375;28;20333;-86
2024/01/15 12:55:42;;;;;;;31.50;16.60;;;;;;;;;;5072307;28;20257;-87
2024/01/15 12:58:12;;;;;;;32.33;15.50;;;;;;;;;;5072799;28;20222;-87
2024/01/15 13:00:43;;;;;;;27.77;14.97;;;;;;;;;;5085865;28;20229;-86
2024/01/15 13:03:11;;;;;;;28.07;14.77;;;;;;;;;;5093421;28;20710;-87
2024/01/15 13:05:40;;;;;;;34.93;16.43;;;;;;;;;;5092993;28;20226;-87
2024/01/15 13:08:11;;;;;;;29.07;14.90;;;;;;;;;;5091103;28;20241;-88
2024/01/15 13:10:38;;;;;;;33.23;16.37;;;;;;;;;;5092800;28;20218;-88
2024/01/15 13:13:09;;;;;;;35.17;17.13;;;;;;;;;;5088948;28;20300;-88
2024/01/15 13:15:49;;;;;;;28.07;14.20;;;;;;;;;;5081169;28;20253;-87
2024/01/15 13:18:23;;;;;;;37.57;14.60;;;;;;;;;;5073341;28;20218;-87
2024/01/15 13:20:55;;;;;;;42.93;18.30;;;;;;;;;;5072569;28;20214;-86
2024/01/15 13:23:23;;;;;;;40.23;19.00;;;;;;;;;;5072777;28;20242;-87
2024/01/15 13:25:56;;;;;;;35.17;17.33;;;;;;;;;;5083512;28;20220;-85
2024/01/15 13:28:34;;;;;;;38.53;18.67;;;;;;;;;;5089199;28;20242;-86
2024/01/15 13:31:12;;;;;;;36.30;17.60;;;;;;;;;;5063698;28;20214;-85
2024/01/15 13:33:47;;;;;;;37.80;16.43;;;;;;;;;;5080726;28;20729;-86
2024/01/15 13:36:17;;;;;;;30.60;16.73;;;;;;;;;;5085827;28;20213;-86
2024/01/15 13:38:45;;;;;;;31.70;15.60;;;;;;;;;;5080884;28;20255;-86
2024/01/15 13:41:15;;;;;;;29.27;16.53;;;;;;;;;;5091207;28;20271;-86
2024/01/15 13:43:48;;;;;;;40.50;18.63;;;;;;;;;;5076877;28;20245;-87
2024/01/15 13:46:18;;;;;;;37.53;18.57;;;;;;;;;;5076135;28;20227;-85
2024/01/15 13:48:50;;;;;;;28.47;15.97;;;;;;;;;;5074781;28;20257;-86
2024/01/15 13:51:21;;;;;;;31.00;15.70;;;;;;;;;;5078793;28;20273;-87
2024/01/15 13:53:50;;;;;;;39.30;17.67;;;;;;;;;;5082264;28;20288;-85
2024/01/15 13:56:35;;;;;;;33.47;14.33;;;;;;;;;;5053314;28;20202;-85
2024/01/15 13:59:10;;;;;;;34.63;15.23;;;;;;;;;;5052596;28;20249;-86
2024/01/15 14:01:47;;;;;;;32.40;15.50;;;;;;;;;;5051412;28;20639;-87
2024/01/15 14:04:27;;;;;;;35.63;15.03;;;;;;;;;;5050883;28;20352;-86
2024/01/15 14:07:04;;;;;;;33.37;14.23;;;;;;;;;;5050807;28;20664;-86
2024/01/15 14:09:42;;;;;;;45.13;17.10;;;;;;;;;;5050860;28;20684;-85
2024/01/15 14:12:29;;;;;;;30.37;14.03;;;;;;;;;;5052554;28;20195;-86
2024/01/15 14:15:20;;;;;;;53.90;25.97;;;;;;;;;;5050575;28;20219;-86
2024/01/15 14:17:58;;;;;;;80.43;37.43;;;;;;;;;;5050143;28;20195;-87
2024/01/15 14:20:29;;;;;;;46.13;19.47;;;;;;;;;;5050494;28;20229;-87
2024/01/15 14:25:43;;;;;;;72.83;36.67;;;;;;;;;;5067086;28;20197;-85
2024/01/15 14:28:31;;;;;;;38.60;18.87;;;;;;;;;;5068685;28;20199;-85
2024/01/15 14:34:15;;;;;;;46.50;22.10;;;;;;;;;;5052175;28;20275;-86
2024/01/15 14:36:58;;;;;;;44.87;21.13;;;;;;;;;;5052377;28;20199;-86
2024/01/15 14:39:40;;;;;;;49.77;19.27;;;;;;;;;;5024721;28;20269;-87
2024/01/15 14:42:15;;;;;;;34.77;17.30;;;;;;;;;;5051675;28;20231;-86
2024/01/15 14:44:42;;;;;;;66.20;30.80;;;;;;;;;;5052302;28;20719;-87
2024/01/15 14:47:12;;;;;;;43.47;22.03;;;;;;;;;;5052468;28;20199;-86
2024/01/15 14:52:55;;;;;;;42.87;20.67;;;;;;;;;;5059575;28;20222;-86
2024/01/15 14:55:44;;;;;;;31.93;14.40;;;;;;;;;;5062265;28;20271;-87
2024/01/15 14:58:14;;;;;;;29.97;12.83;;;;;;;;;;5057328;28;20211;-87
2024/01/15 15:00:46;;;;;;;45.60;20.43;;;;;;;;;;5065195;28;20199;-85
2024/01/15 15:06:12;;;;;;;61.17;26.73;;;;;;;;;;5055206;28;20203;-86
2024/01/15 15:08:40;;;;;;;55.00;28.87;;;;;;;;;;5056466;28;20250;-87
2024/01/15 15:11:12;;;;;;;61.40;26.77;;;;;;;;;;5056233;28;20806;-86
2024/01/15 15:13:45;;;;;;;42.93;20.10;;;;;;;;;;5056879;28;20203;-86
2024/01/15 15:16:15;;;;;;;44.27;17.23;;;;;;;;;;5057334;28;20230;-87